createdAt,value
2018-09-28T00:00:22.687Z,944.32
2018-09-28T00:01:23.918Z,944.33
2018-09-28T00:02:24.527Z,944.35
2018-09-28T00:03:24.866Z,944.27
2018-09-28T00:04:25.647Z,944.27
2018-09-28T00:05:26.704Z,944.31
2018-09-28T00:06:27.206Z,944.26
2018-09-28T00:07:28.263Z,944.27
2018-09-28T00:08:29.325Z,944.26
2018-09-28T00:09:30.105Z,944.27
2018-09-28T00:10:30.719Z,944.17
2018-09-28T00:11:31.575Z,944.22
2018-09-28T00:12:32.079Z,944.18
2018-09-28T00:13:33.138Z,944.19
2018-09-28T00:14:33.644Z,944.16
2018-09-28T00:15:34.427Z,944.17
2018-09-28T00:16:35.210Z,944.15
2018-09-28T00:17:35.825Z,944.17
2018-09-28T00:18:36.609Z,944.08
2018-09-28T00:19:37.392Z,944.1
2018-09-28T00:20:38.174Z,944.07
2018-09-28T00:21:39.405Z,944.08
2018-09-28T00:22:39.909Z,944.04
2018-09-28T00:23:40.969Z,944.06
2018-09-28T00:24:41.473Z,944.08
2018-09-28T00:25:42.533Z,944.06
2018-09-28T00:26:43.317Z,944.03
2018-09-28T00:27:44.375Z,943.98
2018-09-28T00:28:45.154Z,944.03
2018-09-28T00:29:45.661Z,943.99
2018-09-28T00:30:45.998Z,944.03
2018-09-28T00:31:47.224Z,944
2018-09-28T00:32:47.561Z,944
2018-09-28T00:33:48.620Z,943.96
2018-09-28T00:34:49.405Z,943.97
2018-09-28T00:35:50.481Z,943.91
2018-09-28T00:36:50.884Z,943.86
2018-09-28T00:37:51.667Z,943.88
2018-09-28T00:38:53.003Z,943.84
2018-09-28T00:39:54.061Z,943.83
2018-09-28T00:40:54.843Z,943.86
2018-09-28T00:41:55.373Z,943.82
2018-09-28T00:42:55.991Z,943.84
2018-09-28T00:43:56.772Z,943.82
2018-09-28T00:44:57.554Z,943.82
2018-09-28T00:45:58.170Z,943.83
2018-09-28T00:46:59.226Z,943.79
2018-09-28T00:48:00.284Z,943.81
2018-09-28T00:49:00.623Z,943.79
2018-09-28T00:50:01.410Z,943.77
2018-09-28T00:51:01.914Z,943.71
2018-09-28T00:52:02.429Z,943.71
2018-09-28T00:53:03.209Z,943.68
2018-09-28T00:54:03.714Z,943.65
2018-09-28T00:55:04.054Z,943.6
2018-09-28T00:56:04.670Z,943.63
2018-09-28T00:57:05.173Z,943.61
2018-09-28T00:58:06.398Z,943.59
2018-09-28T00:59:07.570Z,943.56
2018-09-28T01:00:08.073Z,943.56
2018-09-28T01:01:08.855Z,943.54
2018-09-28T01:02:10.084Z,943.54
2018-09-28T01:03:10.427Z,943.54
2018-09-28T01:04:10.931Z,943.52
2018-09-28T01:05:11.712Z,943.47
2018-09-28T01:06:12.489Z,943.47
2018-09-28T01:07:12.993Z,943.48
2018-09-28T01:08:13.775Z,943.46
2018-09-28T01:09:15.003Z,943.48
2018-09-28T01:10:16.063Z,943.48
2018-09-28T01:11:16.568Z,943.49
2018-09-28T01:12:17.393Z,943.49
2018-09-28T01:13:17.905Z,943.45
2018-09-28T01:14:18.521Z,943.41
2018-09-28T01:15:19.855Z,943.41
2018-09-28T01:16:20.640Z,943.39
2018-09-28T01:17:21.700Z,943.39
2018-09-28T01:18:22.202Z,943.4
2018-09-28T01:19:23.539Z,943.36
2018-09-28T01:20:24.329Z,943.37
2018-09-28T01:21:25.553Z,943.36
2018-09-28T01:22:26.614Z,943.35
2018-09-28T01:23:27.229Z,943.35
2018-09-28T01:24:27.733Z,943.31
2018-09-28T01:25:28.791Z,943.32
2018-09-28T01:26:29.294Z,943.29
2018-09-28T01:27:30.522Z,943.31
2018-09-28T01:28:31.303Z,943.29
2018-09-28T01:29:32.809Z,943.23
2018-09-28T01:30:33.593Z,943.25
2018-09-28T01:31:34.098Z,943.22
2018-09-28T01:32:34.776Z,943.24
2018-09-28T01:33:36.001Z,943.2
2018-09-28T01:34:37.336Z,943.19
2018-09-28T01:35:38.396Z,943.18
2018-09-28T01:36:38.736Z,943.16
2018-09-28T01:37:39.520Z,943.13
2018-09-28T01:38:40.024Z,943.14
2018-09-28T01:39:40.807Z,943.13
2018-09-28T01:40:41.865Z,943.12
2018-09-28T01:41:42.372Z,943.13
2018-09-28T01:42:43.623Z,943.17
2018-09-28T01:43:44.126Z,943.13
2018-09-28T01:44:44.462Z,943.15
2018-09-28T01:45:44.966Z,943.15
2018-09-28T01:46:45.471Z,943.13
2018-09-28T01:47:46.100Z,943.15
2018-09-28T01:48:46.885Z,943.15
2018-09-28T01:49:47.665Z,943.12
2018-09-28T01:50:48.449Z,943.09
2018-09-28T01:51:49.231Z,943.14
2018-09-28T01:52:49.910Z,943.12
2018-09-28T01:53:51.248Z,943.11
2018-09-28T01:54:52.030Z,943.09
2018-09-28T01:55:52.813Z,943.12
2018-09-28T01:56:53.591Z,943.08
2018-09-28T01:57:54.650Z,943.11
2018-09-28T01:58:55.710Z,943.08
2018-09-28T01:59:56.325Z,943.08
2018-09-28T02:00:56.661Z,943.05
2018-09-28T02:01:57.886Z,943.05
2018-09-28T02:02:59.392Z,943.02
2018-09-28T02:04:00.178Z,943.01
2018-09-28T02:05:00.979Z,943
2018-09-28T02:06:02.057Z,942.91
2018-09-28T02:07:03.119Z,942.95
2018-09-28T02:08:03.899Z,942.95
2018-09-28T02:09:04.962Z,942.94
2018-09-28T02:10:05.743Z,942.9
2018-09-28T02:11:06.818Z,942.91
2018-09-28T02:12:07.874Z,942.9
2018-09-28T02:13:08.454Z,942.91
2018-09-28T02:14:09.514Z,942.88
2018-09-28T02:15:10.032Z,942.86
2018-09-28T02:16:10.646Z,942.87
2018-09-28T02:17:11.427Z,942.88
2018-09-28T02:18:12.213Z,942.85
2018-09-28T02:19:12.719Z,942.86
2018-09-28T02:20:13.794Z,942.88
2018-09-28T02:21:14.860Z,942.87
2018-09-28T02:22:15.474Z,942.85
2018-09-28T02:23:16.428Z,942.83
2018-09-28T02:24:16.930Z,942.84
2018-09-28T02:25:17.997Z,942.83
2018-09-28T02:26:19.056Z,942.79
2018-09-28T02:27:19.559Z,942.83
2018-09-28T02:28:20.340Z,942.82
2018-09-28T02:29:21.120Z,942.85
2018-09-28T02:30:22.503Z,942.86
2018-09-28T02:31:23.688Z,942.87
2018-09-28T02:32:24.748Z,942.87
2018-09-28T02:33:25.531Z,942.87
2018-09-28T02:34:26.313Z,942.85
2018-09-28T02:35:27.375Z,942.86
2018-09-28T02:36:28.309Z,942.88
2018-09-28T02:37:29.089Z,942.84
2018-09-28T02:38:30.151Z,942.8
2018-09-28T02:39:31.656Z,942.81
2018-09-28T02:40:32.547Z,942.88
2018-09-28T02:41:33.160Z,942.89
2018-09-28T02:42:34.222Z,942.85
2018-09-28T02:43:35.016Z,942.91
2018-09-28T02:44:36.084Z,942.86
2018-09-28T02:45:36.700Z,942.9
2018-09-28T02:46:37.318Z,942.84
2018-09-28T02:47:38.664Z,942.88
2018-09-28T02:48:39.283Z,942.83
2018-09-28T02:49:39.622Z,942.85
2018-09-28T02:50:39.959Z,942.88
2018-09-28T02:51:40.605Z,942.85
2018-09-28T02:52:41.108Z,942.86
2018-09-28T02:53:42.219Z,942.83
2018-09-28T02:54:43.299Z,942.83
2018-09-28T02:55:44.361Z,942.8
2018-09-28T02:56:45.544Z,942.81
2018-09-28T02:57:46.653Z,942.76
2018-09-28T02:58:47.710Z,942.75
2018-09-28T02:59:48.057Z,942.75
2018-09-28T03:00:48.397Z,942.78
2018-09-28T03:01:48.735Z,942.73
2018-09-28T03:02:49.792Z,942.72
2018-09-28T03:03:50.605Z,942.74
2018-09-28T03:04:51.386Z,942.78
2018-09-28T03:05:52.445Z,942.75
2018-09-28T03:06:53.670Z,942.74
2018-09-28T03:07:54.576Z,942.73
2018-09-28T03:08:55.628Z,942.74
2018-09-28T03:09:55.967Z,942.71
2018-09-28T03:10:56.580Z,942.68
2018-09-28T03:11:57.751Z,942.7
2018-09-28T03:12:58.821Z,942.69
2018-09-28T03:13:59.589Z,942.69
2018-09-28T03:15:00.644Z,942.69
2018-09-28T03:16:01.742Z,942.67
2018-09-28T03:17:02.651Z,942.7
2018-09-28T03:18:03.272Z,942.7
2018-09-28T03:19:04.188Z,942.7
2018-09-28T03:20:05.249Z,942.67
2018-09-28T03:21:05.761Z,942.67
2018-09-28T03:22:06.660Z,942.66
2018-09-28T03:23:07.551Z,942.65
2018-09-28T03:24:08.091Z,942.66
2018-09-28T03:25:09.187Z,942.66
2018-09-28T03:26:10.484Z,942.65
2018-09-28T03:27:11.102Z,942.68
2018-09-28T03:28:12.167Z,942.69
2018-09-28T03:29:13.270Z,942.65
2018-09-28T03:30:14.608Z,942.67
2018-09-28T03:31:15.226Z,942.65
2018-09-28T03:32:15.840Z,942.61
2018-09-28T03:33:16.628Z,942.64
2018-09-28T03:34:17.450Z,942.64
2018-09-28T03:35:18.229Z,942.61
2018-09-28T03:36:19.016Z,942.59
2018-09-28T03:37:19.672Z,942.59
2018-09-28T03:38:20.563Z,942.56
2018-09-28T03:39:21.679Z,942.53
2018-09-28T03:40:22.317Z,942.55
2018-09-28T03:41:23.770Z,942.55
2018-09-28T03:42:24.658Z,942.49
2018-09-28T03:43:25.436Z,942.57
2018-09-28T03:44:26.388Z,942.54
2018-09-28T03:45:27.443Z,942.57
2018-09-28T03:46:28.502Z,942.58
2018-09-28T03:47:29.841Z,942.56
2018-09-28T03:48:30.736Z,942.62
2018-09-28T03:49:31.515Z,942.63
2018-09-28T03:50:32.582Z,942.6
2018-09-28T03:51:33.365Z,942.53
2018-09-28T03:52:33.982Z,942.54
2018-09-28T03:53:34.320Z,942.56
2018-09-28T03:54:35.405Z,942.54
2018-09-28T03:55:35.854Z,942.56
2018-09-28T03:56:36.356Z,942.5
2018-09-28T03:57:36.970Z,942.51
2018-09-28T03:58:38.030Z,942.51
2018-09-28T03:59:38.370Z,942.47
2018-09-28T04:00:39.705Z,942.39
2018-09-28T04:01:40.771Z,942.44
2018-09-28T04:02:41.559Z,942.42
2018-09-28T04:03:42.321Z,942.43
2018-09-28T04:04:43.850Z,942.39
2018-09-28T04:05:44.357Z,942.37
2018-09-28T04:06:45.419Z,942.42
2018-09-28T04:07:46.026Z,942.41
2018-09-28T04:08:47.133Z,942.39
2018-09-28T04:09:47.742Z,942.35
2018-09-28T04:10:48.093Z,942.42
2018-09-28T04:11:48.710Z,942.45
2018-09-28T04:12:49.661Z,942.39
2018-09-28T04:13:50.445Z,942.41
2018-09-28T04:14:50.818Z,942.42
2018-09-28T04:15:51.522Z,942.42
2018-09-28T04:16:52.585Z,942.4
2018-09-28T04:17:53.647Z,942.47
2018-09-28T04:18:54.986Z,942.48
2018-09-28T04:19:55.599Z,942.45
2018-09-28T04:20:56.941Z,942.49
2018-09-28T04:21:57.436Z,942.49
2018-09-28T04:22:57.717Z,942.51
2018-09-28T04:23:58.325Z,942.51
2018-09-28T04:24:58.711Z,942.53
2018-09-28T04:25:59.342Z,942.49
2018-09-28T04:26:59.952Z,942.52
2018-09-28T04:28:01.292Z,942.55
2018-09-28T04:29:02.351Z,942.51
2018-09-28T04:30:03.411Z,942.55
2018-09-28T04:31:04.031Z,942.53
2018-09-28T04:32:05.088Z,942.49
2018-09-28T04:33:05.589Z,942.5
2018-09-28T04:34:06.659Z,942.53
2018-09-28T04:34:50.924Z,942.5
2018-09-28T04:35:52.185Z,942.54
2018-09-28T04:36:52.685Z,942.51
2018-09-28T04:37:53.186Z,942.55
2018-09-28T04:38:53.686Z,942.54
2018-09-28T04:39:54.495Z,942.5
2018-09-28T04:40:55.276Z,942.5
2018-09-28T04:41:56.058Z,942.5
2018-09-28T04:42:57.406Z,942.53
2018-09-28T04:43:58.634Z,942.52
2018-09-28T04:44:59.444Z,942.53
2018-09-28T04:45:59.811Z,942.52
2018-09-28T04:47:00.867Z,942.54
2018-09-28T04:48:01.929Z,942.55
2018-09-28T04:49:02.706Z,942.53
2018-09-28T04:50:03.484Z,942.52
2018-09-28T04:51:04.267Z,942.52
2018-09-28T04:52:05.324Z,942.53
2018-09-28T04:53:06.105Z,942.51
2018-09-28T04:54:06.612Z,942.51
2018-09-28T04:55:07.391Z,942.51
2018-09-28T04:56:08.197Z,942.52
2018-09-28T04:57:09.091Z,942.51
2018-09-28T04:58:09.985Z,942.54
2018-09-28T04:59:10.495Z,942.54
2018-09-28T05:00:11.557Z,942.53
2018-09-28T05:01:12.338Z,942.52
2018-09-28T05:02:12.844Z,942.51
2018-09-28T05:03:13.348Z,942.54
2018-09-28T05:04:14.130Z,942.55
2018-09-28T05:05:15.195Z,942.53
2018-09-28T05:06:15.726Z,942.55
2018-09-28T05:07:16.953Z,942.56
2018-09-28T05:08:18.461Z,942.55
2018-09-28T05:09:19.244Z,942.5
2018-09-28T05:10:20.028Z,942.5
2018-09-28T05:11:20.811Z,942.53
2018-09-28T05:12:21.593Z,942.56
2018-09-28T05:13:21.929Z,942.54
2018-09-28T05:14:22.713Z,942.53
2018-09-28T05:15:23.495Z,942.51
2018-09-28T05:16:24.200Z,942.53
2018-09-28T05:17:25.538Z,942.52
2018-09-28T05:18:26.625Z,942.53
2018-09-28T05:19:28.233Z,942.51
2018-09-28T05:20:29.333Z,942.55
2018-09-28T05:21:30.401Z,942.54
2018-09-28T05:22:31.178Z,942.56
2018-09-28T05:23:31.792Z,942.55
2018-09-28T05:24:32.301Z,942.53
2018-09-28T05:25:33.196Z,942.55
2018-09-28T05:26:33.994Z,942.53
2018-09-28T05:27:34.780Z,942.57
2018-09-28T05:28:35.841Z,942.55
2018-09-28T05:29:36.183Z,942.57
2018-09-28T05:30:53.972Z,942.59
2018-09-28T05:31:01.418Z,942.61
2018-09-28T05:32:02.372Z,942.61
2018-09-28T05:33:03.412Z,942.58
2018-09-28T05:34:03.841Z,942.59
2018-09-28T05:35:04.901Z,942.57
2018-09-28T05:36:05.686Z,942.59
2018-09-28T05:37:06.811Z,942.64
2018-09-28T05:38:07.211Z,942.61
2018-09-28T05:39:08.272Z,942.6
2018-09-28T05:40:08.616Z,942.61
2018-09-28T05:41:09.843Z,942.64
2018-09-28T05:42:10.905Z,942.64
2018-09-28T05:43:11.967Z,942.61
2018-09-28T05:44:12.748Z,942.62
2018-09-28T05:45:13.535Z,942.64
2018-09-28T05:46:14.097Z,942.65
2018-09-28T05:47:14.425Z,942.71
2018-09-28T05:48:15.487Z,942.61
2018-09-28T05:49:16.274Z,942.66
2018-09-28T05:50:17.062Z,942.73
2018-09-28T05:51:17.442Z,942.77
2018-09-28T05:52:18.078Z,942.72
2018-09-28T05:53:18.589Z,942.72
2018-09-28T05:54:19.658Z,942.71
2018-09-28T05:55:20.169Z,942.73
2018-09-28T05:56:20.957Z,942.74
2018-09-28T05:57:22.022Z,942.72
2018-09-28T05:58:23.140Z,942.76
2018-09-28T05:59:23.628Z,942.78
2018-09-28T06:00:24.420Z,942.82
2018-09-28T06:01:24.932Z,942.83
2018-09-28T06:02:26.449Z,942.85
2018-09-28T06:03:27.519Z,942.81
2018-09-28T06:04:28.308Z,942.78
2018-09-28T06:05:28.675Z,942.81
2018-09-28T06:06:29.438Z,942.79
2018-09-28T06:07:30.060Z,942.76
2018-09-28T06:08:30.405Z,942.78
2018-09-28T06:09:32.292Z,942.81
2018-09-28T06:10:33.072Z,942.8
2018-09-28T06:11:33.547Z,942.81
2018-09-28T06:12:34.532Z,942.87
2018-09-28T06:13:35.425Z,942.89
2018-09-28T06:14:35.931Z,942.84
2018-09-28T06:15:37.304Z,942.85
2018-09-28T06:16:37.919Z,942.9
2018-09-28T06:17:38.982Z,942.9
2018-09-28T06:18:40.295Z,942.89
2018-09-28T06:19:41.067Z,942.88
2018-09-28T06:20:41.850Z,942.83
2018-09-28T06:21:42.994Z,942.89
2018-09-28T06:22:43.951Z,942.9
2018-09-28T06:23:45.015Z,942.83
2018-09-28T06:24:45.802Z,942.82
2018-09-28T06:25:46.896Z,942.9
2018-09-28T06:26:48.038Z,942.92
2018-09-28T06:27:49.268Z,942.84
2018-09-28T06:28:49.778Z,942.82
2018-09-28T06:29:50.650Z,942.86
2018-09-28T06:30:51.574Z,942.95
2018-09-28T06:31:52.076Z,942.85
2018-09-28T06:32:52.607Z,942.83
2018-09-28T06:33:53.116Z,942.89
2018-09-28T06:34:53.902Z,942.96
2018-09-28T06:35:55.424Z,942.93
2018-09-28T06:36:55.869Z,942.87
2018-09-28T06:37:56.655Z,942.84
2018-09-28T06:38:57.439Z,942.91
2018-09-28T06:39:58.667Z,942.92
2018-09-28T06:40:59.010Z,942.88
2018-09-28T06:42:00.145Z,942.92
2018-09-28T06:43:00.607Z,942.99
2018-09-28T06:44:01.313Z,942.94
2018-09-28T06:45:02.106Z,942.96
2018-09-28T06:46:03.183Z,942.98
2018-09-28T06:47:03.699Z,942.94
2018-09-28T06:48:05.121Z,942.92
2018-09-28T06:49:05.958Z,942.98
2018-09-28T06:50:06.575Z,942.99
2018-09-28T06:51:07.717Z,942.9
2018-09-28T06:52:08.775Z,942.91
2018-09-28T06:53:09.458Z,942.97
2018-09-28T06:54:10.723Z,942.99
2018-09-28T06:55:11.663Z,942.96
2018-09-28T06:56:12.729Z,942.93
2018-09-28T06:57:13.079Z,942.93
2018-09-28T06:58:13.924Z,942.96
2018-09-28T06:59:15.133Z,942.94
2018-09-28T07:00:15.655Z,942.92
2018-09-28T07:01:16.323Z,942.97
2018-09-28T07:02:16.840Z,942.94
2018-09-28T07:03:17.802Z,942.96
2018-09-28T07:04:18.884Z,942.99
2018-09-28T07:05:19.398Z,943.03
2018-09-28T07:06:20.395Z,943.03
2018-09-28T07:07:20.943Z,943.01
2018-09-28T07:08:21.752Z,943.05
2018-09-28T07:09:22.929Z,943.17
2018-09-28T07:10:23.608Z,943.15
2018-09-28T07:11:24.236Z,943.16
2018-09-28T07:12:25.318Z,943.15
2018-09-28T07:13:26.833Z,943.24
2018-09-28T07:14:28.186Z,943.2
2018-09-28T07:15:29.418Z,943.27
2018-09-28T07:16:30.259Z,943.25
2018-09-28T07:17:31.384Z,943.24
2018-09-28T07:18:31.899Z,943.25
2018-09-28T07:19:32.689Z,943.2
2018-09-28T07:20:34.203Z,943.23
2018-09-28T07:21:34.990Z,943.23
2018-09-28T07:22:35.618Z,943.24
2018-09-28T07:23:36.444Z,943.22
2018-09-28T07:24:37.629Z,943.19
2018-09-28T07:25:38.878Z,943.28
2018-09-28T07:26:40.002Z,943.24
2018-09-28T07:27:40.795Z,943.21
2018-09-28T07:28:41.141Z,943.23
2018-09-28T07:29:41.667Z,943.22
2018-09-28T07:30:42.547Z,943.21
2018-09-28T07:31:43.334Z,943.18
2018-09-28T07:32:43.850Z,943.15
2018-09-28T07:33:44.824Z,943.13
2018-09-28T07:34:46.060Z,943.12
2018-09-28T07:35:46.886Z,943.1
2018-09-28T07:36:49.277Z,943.1
2018-09-28T07:37:50.443Z,943.05
2018-09-28T07:38:51.583Z,943.1
2018-09-28T07:39:52.370Z,943.1
2018-09-28T07:40:52.885Z,943.09
2018-09-28T07:41:54.112Z,943.08
2018-09-28T07:42:54.744Z,943.05
2018-09-28T07:43:55.940Z,943.08
2018-09-28T07:44:56.729Z,943.1
2018-09-28T07:45:57.243Z,943.07
2018-09-28T07:46:58.476Z,943.04
2018-09-28T07:48:00.013Z,943.05
2018-09-28T07:49:00.703Z,943.07
2018-09-28T07:50:01.827Z,943.06
2018-09-28T07:51:02.905Z,943.06
2018-09-28T07:52:03.416Z,943.05
2018-09-28T07:53:04.210Z,943.05
2018-09-28T07:54:05.820Z,943.08
2018-09-28T07:55:06.397Z,943.03
2018-09-28T07:56:07.186Z,943.04
2018-09-28T07:57:07.977Z,943.04
2018-09-28T07:58:09.213Z,943.03
2018-09-28T07:59:09.560Z,943.03
2018-09-28T08:00:10.306Z,943.03
2018-09-28T08:01:10.786Z,943.04
2018-09-28T08:02:11.158Z,943.03
2018-09-28T08:03:11.949Z,943.03
2018-09-28T08:04:12.375Z,943.02
2018-09-28T08:05:14.339Z,943.01
2018-09-28T08:05:25.436Z,943
2018-09-28T08:06:26.400Z,942.99
2018-09-28T08:07:27.191Z,942.95
2018-09-28T08:08:27.540Z,942.98
2018-09-28T08:09:28.620Z,943
2018-09-28T08:10:29.314Z,942.96
2018-09-28T08:11:30.034Z,942.97
2018-09-28T08:12:30.383Z,942.98
2018-09-28T08:13:31.032Z,943
2018-09-28T08:14:31.386Z,943.01
2018-09-28T08:15:32.174Z,943.01
2018-09-28T08:16:33.272Z,943.03
2018-09-28T08:17:34.363Z,943.05
2018-09-28T08:18:34.878Z,943.05
2018-09-28T08:19:35.504Z,943.06
2018-09-28T08:20:36.291Z,943.03
2018-09-28T08:21:37.394Z,943.06
2018-09-28T08:22:37.906Z,943.09
2018-09-28T08:23:38.698Z,943.07
2018-09-28T08:24:39.274Z,943.07
2018-09-28T08:25:39.824Z,943.05
2018-09-28T08:26:41.060Z,943.08
2018-09-28T08:27:41.871Z,943.05
2018-09-28T08:28:42.664Z,943.07
2018-09-28T08:29:43.741Z,943.1
2018-09-28T08:30:44.251Z,943.04
2018-09-28T08:31:45.043Z,943.08
2018-09-28T08:32:45.389Z,943.06
2018-09-28T08:33:46.457Z,943.04
2018-09-28T08:34:46.968Z,943.04
2018-09-28T08:35:47.480Z,943.07
2018-09-28T08:36:48.749Z,943.05
2018-09-28T08:37:49.842Z,943.07
2018-09-28T08:38:50.908Z,943.06
2018-09-28T08:39:52.120Z,943.07
2018-09-28T08:40:52.862Z,943.12
2018-09-28T08:41:53.398Z,943.09
2018-09-28T08:42:54.435Z,943.11
2018-09-28T08:43:55.667Z,943.11
2018-09-28T08:44:56.838Z,943.12
2018-09-28T08:45:57.955Z,943.06
2018-09-28T08:46:58.312Z,943.07
2018-09-28T08:47:59.100Z,943.08
2018-09-28T08:48:59.453Z,943.08
2018-09-28T08:50:00.450Z,943.04
2018-09-28T08:51:01.243Z,943.08
2018-09-28T08:52:02.479Z,943.03
2018-09-28T08:53:02.991Z,943.02
2018-09-28T08:54:03.339Z,943
2018-09-28T08:55:06.043Z,942.99
2018-09-28T08:55:16.775Z,943.02
2018-09-28T08:56:17.441Z,943
2018-09-28T08:57:18.633Z,943.03
2018-09-28T08:58:19.260Z,942.99
2018-09-28T08:59:20.604Z,943
2018-09-28T09:00:21.396Z,943
2018-09-28T09:01:22.493Z,942.99
2018-09-28T09:02:23.120Z,942.96
2018-09-28T09:03:23.492Z,942.96
2018-09-28T09:04:24.585Z,942.95
2018-09-28T09:05:25.146Z,942.89
2018-09-28T09:06:25.511Z,942.91
2018-09-28T09:07:25.859Z,942.86
2018-09-28T09:08:26.648Z,942.89
2018-09-28T09:09:27.722Z,942.87
2018-09-28T09:10:28.399Z,942.89
2018-09-28T09:11:29.220Z,942.87
2018-09-28T09:12:30.455Z,942.86
2018-09-28T09:13:31.527Z,942.82
2018-09-28T09:14:32.323Z,942.84
2018-09-28T09:15:33.389Z,942.84
2018-09-28T09:16:34.738Z,942.85
2018-09-28T09:17:36.080Z,942.84
2018-09-28T09:18:36.869Z,942.88
2018-09-28T09:19:37.777Z,942.85
2018-09-28T09:20:38.848Z,942.82
2018-09-28T09:21:39.473Z,942.84
2018-09-28T09:22:40.544Z,942.81
2018-09-28T09:23:41.054Z,942.8
2018-09-28T09:24:41.402Z,942.79
2018-09-28T09:25:42.636Z,942.77
2018-09-28T09:26:43.178Z,942.75
2018-09-28T09:27:43.970Z,942.76
2018-09-28T09:28:45.316Z,942.76
2018-09-28T09:29:46.837Z,942.76
2018-09-28T09:30:47.631Z,942.77
2018-09-28T09:31:48.432Z,942.76
2018-09-28T09:32:49.675Z,942.72
2018-09-28T09:33:50.189Z,942.75
2018-09-28T09:34:51.698Z,942.71
2018-09-28T09:35:52.771Z,942.73
2018-09-28T09:36:54.244Z,942.67
2018-09-28T09:37:55.312Z,942.69
2018-09-28T09:38:56.104Z,942.62
2018-09-28T09:39:56.725Z,942.68
2018-09-28T09:40:57.229Z,942.68
2018-09-28T09:41:58.314Z,942.69
2018-09-28T09:42:58.847Z,942.69
2018-09-28T09:43:59.373Z,942.72
2018-09-28T09:45:00.168Z,942.7
2018-09-28T09:46:00.970Z,942.68
2018-09-28T09:47:01.484Z,942.67
2018-09-28T09:48:02.332Z,942.66
2018-09-28T09:49:02.858Z,942.63
2018-09-28T09:50:03.926Z,942.65
2018-09-28T09:51:04.716Z,942.66
2018-09-28T09:52:05.062Z,942.63
2018-09-28T09:53:05.507Z,942.66
2018-09-28T09:54:05.862Z,942.7
2018-09-28T09:55:06.650Z,942.68
2018-09-28T09:56:07.293Z,942.67
2018-09-28T09:57:08.374Z,942.71
2018-09-28T09:58:09.491Z,942.68
2018-09-28T09:59:10.204Z,942.7
2018-09-28T10:00:10.720Z,942.67
2018-09-28T10:01:11.239Z,942.69
2018-09-28T10:02:11.832Z,942.7
2018-09-28T10:03:12.912Z,942.7
2018-09-28T10:04:13.266Z,942.72
2018-09-28T10:05:14.100Z,942.74
2018-09-28T10:06:14.449Z,942.71
2018-09-28T10:07:15.408Z,942.66
2018-09-28T10:08:16.154Z,942.67
2018-09-28T10:09:16.732Z,942.71
2018-09-28T10:10:17.457Z,942.69
2018-09-28T10:11:18.775Z,942.65
2018-09-28T10:12:19.820Z,942.67
2018-09-28T10:13:20.780Z,942.67
2018-09-28T10:14:21.854Z,942.63
2018-09-28T10:15:22.375Z,942.62
2018-09-28T10:16:23.183Z,942.61
2018-09-28T10:17:24.160Z,942.61
2018-09-28T10:18:24.685Z,942.6
2018-09-28T10:19:25.250Z,942.6
2018-09-28T10:20:26.267Z,942.63
2018-09-28T10:21:26.788Z,942.67
2018-09-28T10:22:27.878Z,942.62
2018-09-28T10:23:28.401Z,942.63
2018-09-28T10:24:29.463Z,942.61
2018-09-28T10:25:30.302Z,942.6
2018-09-28T10:26:31.382Z,942.58
2018-09-28T10:27:33.022Z,942.55
2018-09-28T10:28:33.317Z,942.58
2018-09-28T10:29:33.669Z,942.57
2018-09-28T10:30:34.469Z,942.58
2018-09-28T10:31:35.548Z,942.58
2018-09-28T10:32:36.070Z,942.6
2018-09-28T10:33:37.864Z,942.58
2018-09-28T10:34:38.912Z,942.59
2018-09-28T10:35:39.624Z,942.6
2018-09-28T10:36:40.987Z,942.59
2018-09-28T10:37:41.792Z,942.58
2018-09-28T10:38:42.676Z,942.56
2018-09-28T10:39:43.947Z,942.58
2018-09-28T10:40:44.379Z,942.55
2018-09-28T10:41:44.604Z,942.51
2018-09-28T10:42:47.050Z,942.48
2018-09-28T10:42:57.839Z,942.46
2018-09-28T10:43:58.189Z,942.43
2018-09-28T10:44:58.996Z,942.43
2018-09-28T10:46:00.148Z,942.37
2018-09-28T10:47:00.677Z,942.34
2018-09-28T10:48:02.145Z,942.32
2018-09-28T10:49:03.235Z,942.3
2018-09-28T10:50:03.589Z,942.25
2018-09-28T10:51:04.112Z,942.26
2018-09-28T10:52:04.659Z,942.28
2018-09-28T10:53:05.654Z,942.22
2018-09-28T10:54:06.660Z,942.24
2018-09-28T10:55:07.349Z,942.2
2018-09-28T10:56:08.149Z,942.15
2018-09-28T10:57:09.325Z,942.17
2018-09-28T10:58:10.417Z,942.16
2018-09-28T10:59:10.725Z,942.12
2018-09-28T11:00:11.246Z,942.07
2018-09-28T11:01:11.956Z,942.11
2018-09-28T11:02:13.030Z,942.08
2018-09-28T11:03:13.833Z,942.07
2018-09-28T11:04:14.952Z,942.08
2018-09-28T11:05:15.941Z,942.05
2018-09-28T11:06:17.040Z,942.04
2018-09-28T11:07:17.835Z,942.05
2018-09-28T11:08:18.449Z,942
2018-09-28T11:09:19.702Z,941.98
2018-09-28T11:10:20.395Z,942
2018-09-28T11:11:20.945Z,941.97
2018-09-28T11:12:21.886Z,941.96
2018-09-28T11:13:22.919Z,941.94
2018-09-28T11:14:23.728Z,941.99
2018-09-28T11:15:24.517Z,941.95
2018-09-28T11:16:25.153Z,941.96
2018-09-28T11:17:26.225Z,941.94
2018-09-28T11:18:26.580Z,941.93
2018-09-28T11:19:27.928Z,941.94
2018-09-28T11:20:28.287Z,941.9
2018-09-28T11:21:29.420Z,941.88
2018-09-28T11:22:30.203Z,941.9
2018-09-28T11:23:31.282Z,941.85
2018-09-28T11:24:31.624Z,941.83
2018-09-28T11:25:31.974Z,941.8
2018-09-28T11:26:33.046Z,941.79
2018-09-28T11:27:33.597Z,941.8
2018-09-28T11:28:34.099Z,941.77
2018-09-28T11:29:34.890Z,941.74
2018-09-28T11:30:35.514Z,941.76
2018-09-28T11:31:36.307Z,941.78
2018-09-28T11:32:37.377Z,941.76
2018-09-28T11:33:38.844Z,941.76
2018-09-28T11:34:39.480Z,941.76
2018-09-28T11:35:40.272Z,941.76
2018-09-28T11:36:40.791Z,941.72
2018-09-28T11:37:41.356Z,941.74
2018-09-28T11:38:42.353Z,941.7
2018-09-28T11:39:43.492Z,941.72
2018-09-28T11:40:44.376Z,941.69
2018-09-28T11:41:45.176Z,941.66
2018-09-28T11:42:45.971Z,941.71
2018-09-28T11:43:47.052Z,941.68
2018-09-28T11:44:47.740Z,941.66
2018-09-28T11:45:48.331Z,941.67
2018-09-28T11:46:49.484Z,941.64
2018-09-28T11:47:50.108Z,941.61
2018-09-28T11:48:50.645Z,941.58
2018-09-28T11:49:51.441Z,941.61
2018-09-28T11:50:52.233Z,941.61
2018-09-28T11:51:54.524Z,941.59
2018-09-28T11:52:05.183Z,941.61
2018-09-28T11:52:15.816Z,941.58
2018-09-28T11:53:17.254Z,941.58
2018-09-28T11:54:18.048Z,941.55
2018-09-28T11:55:19.124Z,941.57
2018-09-28T11:56:20.480Z,941.53
2018-09-28T11:57:21.694Z,941.54
2018-09-28T11:58:22.342Z,941.54
2018-09-28T11:59:23.582Z,941.48
2018-09-28T12:00:23.931Z,941.47
2018-09-28T12:01:25.007Z,941.52
2018-09-28T12:02:26.089Z,941.53
2018-09-28T12:03:27.903Z,941.56
2018-09-28T12:04:29.093Z,941.52
2018-09-28T12:05:29.725Z,941.53
2018-09-28T12:06:30.256Z,941.46
2018-09-28T12:07:31.423Z,941.46
2018-09-28T12:08:31.921Z,941.49
2018-09-28T12:09:33.136Z,941.48
2018-09-28T12:10:33.690Z,941.48
2018-09-28T12:11:34.487Z,941.48
2018-09-28T12:12:35.435Z,941.48
2018-09-28T12:13:35.885Z,941.46
2018-09-28T12:14:36.857Z,941.45
2018-09-28T12:15:38.159Z,941.41
2018-09-28T12:16:38.722Z,941.42
2018-09-28T12:17:39.519Z,941.41
2018-09-28T12:18:40.119Z,941.37
2018-09-28T12:19:40.859Z,941.36
2018-09-28T12:20:41.373Z,941.27
2018-09-28T12:21:42.324Z,941.31
2018-09-28T12:22:42.943Z,941.27
2018-09-28T12:23:44.200Z,941.25
2018-09-28T12:24:45.134Z,941.22
2018-09-28T12:25:46.049Z,941.17
2018-09-28T12:26:46.847Z,941.22
2018-09-28T12:27:48.005Z,941.21
2018-09-28T12:28:48.629Z,941.17
2018-09-28T12:29:49.706Z,941.13
2018-09-28T12:30:50.579Z,941.17
2018-09-28T12:31:51.236Z,941.14
2018-09-28T12:32:52.305Z,941.11
2018-09-28T12:33:52.699Z,941.11
2018-09-28T12:34:53.491Z,941.05
2018-09-28T12:35:53.897Z,941.07
2018-09-28T12:36:54.695Z,941.07